createdAt,value
2023-01-19T00:02:27.866Z,84.80
2023-01-19T00:05:16.677Z,85.70
2023-01-19T00:08:14.939Z,86.80
2023-01-19T00:11:04.211Z,88.20
2023-01-19T00:13:53.745Z,88.20
2023-01-19T00:16:42.324Z,88.20
2023-01-19T00:19:32.388Z,87.70
2023-01-19T00:22:20.984Z,86.60
2023-01-19T00:25:10.383Z,86.40
2023-01-19T00:28:01.350Z,87.00
2023-01-19T00:30:52.137Z,87.70
2023-01-19T00:33:40.728Z,87.20
2023-01-19T00:36:30.755Z,88.20
2023-01-19T00:39:19.381Z,89.40
2023-01-19T00:42:25.347Z,89.80
2023-01-19T00:45:15.166Z,89.70
2023-01-19T00:48:04.160Z,90.50
2023-01-19T00:50:52.749Z,90.50
2023-01-19T00:53:42.799Z,90.80
2023-01-19T00:56:31.482Z,92.50
2023-01-19T00:59:20.110Z,92.80
2023-01-19T01:02:09.187Z,93.70
2023-01-19T01:04:57.897Z,92.90
2023-01-19T01:07:47.109Z,92.40
2023-01-19T01:10:37.111Z,92.40
2023-01-19T01:13:27.755Z,91.40
2023-01-19T01:16:17.332Z,90.20
2023-01-19T01:19:06.078Z,89.20
2023-01-19T01:21:55.580Z,87.30
2023-01-19T01:24:44.296Z,86.60
2023-01-19T01:27:34.258Z,86.80
2023-01-19T01:30:23.637Z,86.40
2023-01-19T01:33:13.412Z,86.00
2023-01-19T01:36:01.996Z,86.20
2023-01-19T01:38:51.075Z,85.20
2023-01-19T01:41:39.666Z,85.20
2023-01-19T01:44:51.493Z,84.70
2023-01-19T01:47:45.751Z,85.70
2023-01-19T01:50:38.648Z,84.80
2023-01-19T01:53:28.111Z,84.90
2023-01-19T01:56:22.950Z,84.90
2023-01-19T01:59:18.182Z,84.40
2023-01-19T02:02:31.239Z,83.70
2023-01-19T02:05:25.529Z,84.00
2023-01-19T02:08:36.268Z,85.00
2023-01-19T02:11:42.282Z,85.20
2023-01-19T02:14:30.909Z,85.20
2023-01-19T02:17:20.953Z,85.50
2023-01-19T02:20:11.621Z,85.60
2023-01-19T02:23:04.021Z,84.80
2023-01-19T02:25:55.072Z,85.60
2023-01-19T02:28:48.378Z,86.10
2023-01-19T02:31:39.122Z,86.10
2023-01-19T02:34:27.986Z,85.90
2023-01-19T02:37:18.581Z,87.30
2023-01-19T02:40:12.901Z,86.90
2023-01-19T02:43:04.555Z,87.30
2023-01-19T02:45:53.360Z,88.20
2023-01-19T02:48:42.134Z,89.50
2023-01-19T02:51:31.025Z,90.40
2023-01-19T02:54:40.157Z,89.70
2023-01-19T02:57:43.775Z,90.10
2023-01-19T03:00:44.279Z,89.90
2023-01-19T03:03:40.569Z,90.00
2023-01-19T03:06:42.813Z,89.60
2023-01-19T03:09:38.227Z,89.70
2023-01-19T03:12:31.648Z,89.50
2023-01-19T03:15:24.676Z,90.00
2023-01-19T03:18:17.260Z,90.00
2023-01-19T03:21:08.410Z,89.70
2023-01-19T03:24:01.952Z,90.40
2023-01-19T03:26:58.810Z,90.40
2023-01-19T03:29:53.048Z,90.10
2023-01-19T03:32:45.910Z,90.10
2023-01-19T03:35:38.405Z,90.40
2023-01-19T03:38:28.485Z,90.20
2023-01-19T03:41:20.133Z,90.70
2023-01-19T03:44:10.037Z,91.10
2023-01-19T03:47:00.694Z,90.70
2023-01-19T03:49:51.012Z,90.60
2023-01-19T03:52:41.057Z,91.10
2023-01-19T03:55:29.720Z,91.40
2023-01-19T03:58:18.569Z,92.10
2023-01-19T04:01:07.260Z,91.50
2023-01-19T04:03:55.877Z,91.10
2023-01-19T04:06:44.794Z,90.40
2023-01-19T04:09:34.765Z,90.10
2023-01-19T04:12:23.700Z,89.60
2023-01-19T04:15:12.561Z,90.70
2023-01-19T04:18:03.535Z,90.30
2023-01-19T04:20:52.261Z,90.80
2023-01-19T04:23:40.841Z,91.30
2023-01-19T04:26:30.851Z,92.60
2023-01-19T04:29:19.450Z,92.70
2023-01-19T04:32:08.084Z,92.80
2023-01-19T04:34:56.779Z,92.80
2023-01-19T04:37:46.081Z,91.80
2023-01-19T04:40:34.630Z,90.70
2023-01-19T04:43:24.982Z,90.10
2023-01-19T04:46:13.684Z,89.10
2023-01-19T04:49:02.278Z,88.30
2023-01-19T04:51:50.910Z,87.70
2023-01-19T04:54:39.592Z,87.40
2023-01-19T04:57:28.197Z,87.10
2023-01-19T05:00:19.623Z,86.30
2023-01-19T05:03:08.234Z,86.40
2023-01-19T05:05:56.921Z,86.20
2023-01-19T05:08:45.637Z,86.80
2023-01-19T05:11:34.291Z,86.70
2023-01-19T05:14:23.104Z,85.70
2023-01-19T05:17:13.386Z,85.80
2023-01-19T05:20:02.336Z,86.00
2023-01-19T05:22:53.527Z,86.90
2023-01-19T05:25:43.756Z,87.10
2023-01-19T05:28:34.376Z,87.90
2023-01-19T05:31:23.718Z,87.70
2023-01-19T05:34:15.610Z,87.20
2023-01-19T05:37:04.402Z,86.30
2023-01-19T05:39:53.679Z,86.10
2023-01-19T05:42:42.415Z,85.30
2023-01-19T05:45:31.160Z,85.70
2023-01-19T05:48:19.902Z,85.70
2023-01-19T05:51:10.012Z,86.60
2023-01-19T05:53:58.784Z,86.70
2023-01-19T05:56:47.467Z,87.30
2023-01-19T05:59:36.216Z,87.80
2023-01-19T06:02:28.829Z,89.10
2023-01-19T06:05:17.967Z,90.40
2023-01-19T06:08:08.337Z,91.90
2023-01-19T06:10:57.172Z,91.50
2023-01-19T06:13:46.897Z,91.60
2023-01-19T06:16:35.596Z,90.70
2023-01-19T06:19:24.320Z,88.30
2023-01-19T06:22:13.135Z,88.00
2023-01-19T06:25:03.759Z,87.90
2023-01-19T06:27:52.481Z,87.60
2023-01-19T06:30:41.170Z,87.60
2023-01-19T06:33:30.248Z,87.10
2023-01-19T06:36:18.980Z,87.00
2023-01-19T06:39:07.892Z,86.60
2023-01-19T06:41:58.308Z,86.00
2023-01-19T06:44:48.324Z,86.10
2023-01-19T06:47:38.388Z,86.20
2023-01-19T06:50:29.643Z,85.80
2023-01-19T06:53:21.189Z,85.80
2023-01-19T06:56:10.959Z,86.10
2023-01-19T06:59:02.102Z,85.60
2023-01-19T07:01:50.978Z,85.30
2023-01-19T07:04:44.490Z,85.10
2023-01-19T07:07:35.007Z,84.40
2023-01-19T07:10:24.404Z,83.90
2023-01-19T07:13:13.099Z,84.60
2023-01-19T07:16:07.480Z,86.10
2023-01-19T07:18:57.135Z,86.70
2023-01-19T07:21:45.752Z,86.40
2023-01-19T07:24:35.710Z,86.20
2023-01-19T07:27:26.560Z,85.70
2023-01-19T07:30:16.426Z,85.80
2023-01-19T07:33:07.147Z,86.00
2023-01-19T07:35:55.869Z,85.40
2023-01-19T07:38:44.774Z,85.40
2023-01-19T07:41:33.506Z,85.60
2023-01-19T07:44:22.209Z,85.30
2023-01-19T07:47:12.837Z,84.90
2023-01-19T07:50:06.582Z,84.70
2023-01-19T07:52:58.858Z,84.40
2023-01-19T07:55:47.861Z,83.90
2023-01-19T07:58:36.713Z,83.80
2023-01-19T08:01:25.430Z,80.60
2023-01-19T08:04:14.263Z,74.40
2023-01-19T08:07:04.944Z,73.90
2023-01-19T08:09:53.529Z,72.40
2023-01-19T08:12:42.729Z,70.70
2023-01-19T08:15:31.518Z,68.30
2023-01-19T08:18:21.164Z,67.30
2023-01-19T08:21:11.234Z,65.60
2023-01-19T08:24:01.688Z,64.80
2023-01-19T08:26:58.262Z,62.00
2023-01-19T08:29:46.957Z,61.60
2023-01-19T08:32:36.071Z,62.10
2023-01-19T08:35:24.697Z,61.60
2023-01-19T08:38:13.252Z,63.50
2023-01-19T08:41:03.287Z,64.10
2023-01-19T08:43:51.907Z,70.50
2023-01-19T08:46:40.511Z,73.40
2023-01-19T08:49:30.622Z,78.00
2023-01-19T08:52:19.163Z,82.80
2023-01-19T08:55:09.573Z,86.80
2023-01-19T08:58:00.705Z,89.20
2023-01-19T09:00:52.535Z,91.20
2023-01-19T09:03:41.519Z,92.60
2023-01-19T09:06:30.211Z,93.60
2023-01-19T09:09:18.796Z,94.70
2023-01-19T09:12:07.515Z,95.00
2023-01-19T09:14:57.668Z,95.60
2023-01-19T09:17:46.567Z,96.50
2023-01-19T09:20:36.309Z,95.70
2023-01-19T09:23:25.654Z,95.50
2023-01-19T09:26:14.289Z,94.30
2023-01-19T09:29:03.068Z,95.40
2023-01-19T09:31:53.800Z,95.50
2023-01-19T09:34:42.452Z,95.20
2023-01-19T09:37:31.123Z,94.70
2023-01-19T09:40:25.242Z,94.10
2023-01-19T09:43:18.092Z,93.80
2023-01-19T09:46:13.111Z,94.00
2023-01-19T09:49:06.835Z,92.90
2023-01-19T09:51:55.574Z,91.40
2023-01-19T09:54:50.593Z,91.10
2023-01-19T09:57:39.129Z,89.30
2023-01-19T10:00:29.916Z,89.10
2023-01-19T10:03:20.698Z,87.50
2023-01-19T10:06:14.892Z,88.90
2023-01-19T10:09:11.314Z,88.60
2023-01-19T10:12:08.164Z,85.30
2023-01-19T10:15:04.202Z,85.70
2023-01-19T10:18:05.385Z,87.20
2023-01-19T10:20:57.832Z,85.90
2023-01-19T10:23:52.239Z,86.60
2023-01-19T10:26:45.018Z,85.70
2023-01-19T10:29:37.342Z,85.10
2023-01-19T10:32:28.122Z,85.20
2023-01-19T10:35:23.500Z,85.50
2023-01-19T10:38:15.603Z,85.60
2023-01-19T10:41:13.219Z,85.40
2023-01-19T10:44:03.593Z,85.90
2023-01-19T10:46:52.795Z,86.70
2023-01-19T10:49:43.675Z,88.20
2023-01-19T10:52:35.210Z,87.90
2023-01-19T10:55:29.641Z,87.70
2023-01-19T10:58:31.680Z,87.70
2023-01-19T11:01:22.158Z,86.30
2023-01-19T11:04:23.184Z,85.40
2023-01-19T11:07:16.999Z,87.60
2023-01-19T11:10:22.614Z,87.80
2023-01-19T11:13:15.896Z,87.40
2023-01-19T11:16:12.282Z,87.80
2023-01-19T11:19:02.182Z,87.10
2023-01-19T11:21:50.847Z,88.00
2023-01-19T11:24:45.103Z,87.80
2023-01-19T11:27:37.675Z,89.10
2023-01-19T11:30:27.537Z,88.60
2023-01-19T11:33:28.143Z,89.70
2023-01-19T11:36:21.032Z,90.30
2023-01-19T11:39:23.681Z,90.80
2023-01-19T11:42:13.965Z,89.20
2023-01-19T11:45:27.869Z,88.40
2023-01-19T11:48:22.966Z,88.30
2023-01-19T11:51:17.152Z,87.20
2023-01-19T11:54:19.048Z,87.20
2023-01-19T11:57:13.219Z,88.00
2023-01-19T12:00:05.987Z,86.70
2023-01-19T12:02:58.473Z,82.90
2023-01-19T12:05:49.354Z,82.70
2023-01-19T12:08:44.675Z,83.20
2023-01-19T12:11:36.583Z,83.50
2023-01-19T12:14:29.383Z,83.40
2023-01-19T12:17:27.087Z,84.60
2023-01-19T12:20:25.841Z,85.10
2023-01-19T12:23:29.648Z,83.40
2023-01-19T12:26:29.366Z,85.00
2023-01-19T12:29:22.677Z,85.20
2023-01-19T12:32:32.864Z,83.90
2023-01-19T12:35:56.292Z,84.60
2023-01-19T12:38:48.738Z,86.00
2023-01-19T12:41:39.902Z,87.30
2023-01-19T12:44:34.097Z,88.90
2023-01-19T12:47:24.575Z,88.40
2023-01-19T12:50:19.249Z,89.60
2023-01-19T12:53:20.548Z,89.80
2023-01-19T12:56:10.960Z,89.70
2023-01-19T12:59:01.597Z,87.50
2023-01-19T13:02:23.526Z,88.30
2023-01-19T13:05:18.576Z,87.30
2023-01-19T13:09:04.397Z,86.80
2023-01-19T13:12:20.394Z,86.10
2023-01-19T13:15:34.754Z,85.60
2023-01-19T13:18:25.071Z,83.80
2023-01-19T13:21:14.277Z,82.50
2023-01-19T13:24:03.977Z,80.40
2023-01-19T13:30:20.462Z,76.50
2023-01-19T13:33:22.602Z,75.80
2023-01-19T13:36:23.916Z,75.20
2023-01-19T13:39:18.658Z,74.50
2023-01-19T13:42:10.502Z,74.40
2023-01-19T13:45:01.601Z,75.30
2023-01-19T13:47:53.378Z,77.20
2023-01-19T13:50:45.430Z,78.60
2023-01-19T13:53:35.574Z,78.60
2023-01-19T13:56:28.560Z,78.90
2023-01-19T13:59:17.423Z,77.80
2023-01-19T14:02:14.646Z,78.90
2023-01-19T14:05:15.336Z,76.40
2023-01-19T14:08:12.987Z,73.80
2023-01-19T14:11:03.238Z,71.60
2023-01-19T14:13:51.954Z,70.30
2023-01-19T14:16:40.534Z,68.10
2023-01-19T14:19:32.821Z,66.40
2023-01-19T14:25:56.284Z,67.60
2023-01-19T14:28:49.380Z,66.30
2023-01-19T14:31:50.094Z,67.20
2023-01-19T14:34:57.947Z,65.90
2023-01-19T14:38:16.770Z,67.40
2023-01-19T14:41:09.534Z,65.50
2023-01-19T14:44:07.107Z,64.70
2023-01-19T14:47:02.809Z,63.20
2023-01-19T14:50:04.123Z,63.90
2023-01-19T14:53:18.125Z,65.40
2023-01-19T14:56:45.885Z,63.60
2023-01-19T15:02:53.219Z,63.80
2023-01-19T15:05:52.387Z,63.90
2023-01-19T15:08:43.751Z,62.60
2023-01-19T15:11:37.453Z,61.20
2023-01-19T15:14:28.040Z,57.40
2023-01-19T15:17:25.694Z,58.60
2023-01-19T15:20:19.655Z,59.30
2023-01-19T15:23:10.152Z,59.30
2023-01-19T15:26:03.663Z,59.20
2023-01-19T15:32:58.338Z,61.30
2023-01-19T15:35:53.534Z,59.60
2023-01-19T15:38:42.560Z,61.10
2023-01-19T15:41:32.480Z,63.00
2023-01-19T15:44:22.797Z,64.30
2023-01-19T15:47:12.348Z,66.50
2023-01-19T15:50:00.968Z,66.10
2023-01-19T15:52:54.058Z,67.80
2023-01-19T15:55:42.754Z,67.60
2023-01-19T15:58:31.820Z,68.20
2023-01-19T16:01:23.454Z,67.60
2023-01-19T16:04:12.731Z,68.30
2023-01-19T16:07:01.436Z,70.10
2023-01-19T16:09:50.192Z,68.30
2023-01-19T16:12:38.907Z,68.10
2023-01-19T16:15:28.111Z,69.30
2023-01-19T16:18:18.126Z,68.90
2023-01-19T16:21:07.025Z,70.30
2023-01-19T16:23:55.833Z,68.70
2023-01-19T16:26:44.427Z,68.60
2023-01-19T16:29:33.155Z,66.70
2023-01-19T16:32:25.083Z,67.90
2023-01-19T16:35:25.204Z,68.70
2023-01-19T16:38:13.797Z,68.10
2023-01-19T16:41:02.455Z,69.60
2023-01-19T16:43:55.323Z,69.90
2023-01-19T16:46:45.701Z,69.20
2023-01-19T16:49:34.329Z,67.90
2023-01-19T16:52:24.309Z,70.00
2023-01-19T16:55:13.515Z,69.90
2023-01-19T16:58:02.066Z,69.80
2023-01-19T17:00:50.789Z,68.80
2023-01-19T17:03:41.119Z,68.30
2023-01-19T17:06:30.289Z,67.60
2023-01-19T17:09:20.350Z,67.70
2023-01-19T17:12:09.642Z,68.90
2023-01-19T17:14:58.204Z,69.00
2023-01-19T17:17:47.429Z,68.30
2023-01-19T17:20:39.797Z,68.90
2023-01-19T17:23:31.618Z,68.20
2023-01-19T17:26:25.083Z,69.40
2023-01-19T17:29:15.323Z,70.50
2023-01-19T17:32:05.133Z,71.60
2023-01-19T17:34:54.694Z,72.30
2023-01-19T17:37:51.250Z,73.50
2023-01-19T17:40:46.002Z,74.20
2023-01-19T17:43:37.099Z,75.70
2023-01-19T17:46:28.953Z,76.10
2023-01-19T17:49:18.901Z,75.00
2023-01-19T17:52:08.176Z,72.90
2023-01-19T17:54:57.500Z,72.20
2023-01-19T17:57:47.058Z,69.70
2023-01-19T18:00:37.836Z,71.10
2023-01-19T18:03:26.495Z,69.20
2023-01-19T18:06:15.331Z,68.40
2023-01-19T18:09:04.982Z,69.70
2023-01-19T18:11:53.745Z,70.30
2023-01-19T18:14:42.500Z,68.20
2023-01-19T18:17:33.266Z,69.40
2023-01-19T18:20:21.830Z,70.50
2023-01-19T18:23:10.463Z,71.00
2023-01-19T18:26:00.397Z,72.50
2023-01-19T18:28:49.527Z,74.50
2023-01-19T18:31:38.190Z,77.50
2023-01-19T18:34:28.412Z,80.20
2023-01-19T18:37:17.027Z,80.10
2023-01-19T18:40:06.431Z,80.50
2023-01-19T18:42:55.053Z,80.20
2023-01-19T18:45:43.595Z,80.00
2023-01-19T18:48:32.449Z,79.90
2023-01-19T18:51:31.415Z,80.20
2023-01-19T18:54:20.065Z,80.20
2023-01-19T18:57:08.682Z,81.00
2023-01-19T18:59:57.288Z,81.40
2023-01-19T19:02:46.166Z,81.90
2023-01-19T19:05:34.948Z,82.60
2023-01-19T19:08:25.056Z,82.50
2023-01-19T19:15:21.662Z,82.20
2023-01-19T19:18:11.485Z,82.20
2023-01-19T19:21:00.079Z,83.20
2023-01-19T19:23:53.237Z,84.20
2023-01-19T19:26:42.452Z,83.80
2023-01-19T19:29:31.307Z,83.30
2023-01-19T19:32:20.629Z,82.80
2023-01-19T19:35:11.383Z,82.60
2023-01-19T19:38:00.116Z,82.90
2023-01-19T19:40:50.104Z,82.80
2023-01-19T19:43:39.197Z,82.40
2023-01-19T19:46:28.519Z,82.80
2023-01-19T19:49:21.448Z,82.80
2023-01-19T19:52:10.037Z,83.00
2023-01-19T19:54:58.667Z,82.90
2023-01-19T19:57:48.796Z,84.40
2023-01-19T20:00:38.705Z,83.30
2023-01-19T20:03:28.627Z,82.40
2023-01-19T20:06:20.713Z,83.00
2023-01-19T20:09:12.783Z,83.50
2023-01-19T20:12:01.387Z,83.50
2023-01-19T20:14:51.497Z,84.20
2023-01-19T20:17:40.133Z,84.00
2023-01-19T20:20:29.372Z,83.80
2023-01-19T20:23:17.984Z,83.70
2023-01-19T20:26:07.989Z,84.50
2023-01-19T20:29:00.115Z,84.10
2023-01-19T20:31:52.792Z,84.70
2023-01-19T20:34:41.436Z,83.80
2023-01-19T20:37:30.021Z,84.40
2023-01-19T20:40:20.396Z,84.90
2023-01-19T20:43:09.051Z,85.30
2023-01-19T20:45:57.830Z,84.80
2023-01-19T20:48:52.961Z,84.70
2023-01-19T20:51:45.164Z,85.50
2023-01-19T20:54:33.869Z,85.30
2023-01-19T20:57:22.534Z,85.20
2023-01-19T21:00:12.631Z,84.50
2023-01-19T21:03:01.223Z,84.80
2023-01-19T21:05:51.609Z,86.00
2023-01-19T21:08:40.625Z,85.00
2023-01-19T21:11:29.331Z,84.40
2023-01-19T21:14:17.937Z,84.90
2023-01-19T21:17:06.549Z,85.00
2023-01-19T21:19:55.161Z,84.90
2023-01-19T21:22:45.686Z,84.70
2023-01-19T21:25:34.307Z,84.40
2023-01-19T21:28:24.019Z,84.30
2023-01-19T21:31:14.871Z,83.90
2023-01-19T21:34:03.503Z,82.60
2023-01-19T21:36:52.110Z,83.10
2023-01-19T21:39:42.092Z,83.10
2023-01-19T21:42:30.732Z,82.00
2023-01-19T21:45:19.359Z,81.30
2023-01-19T21:48:08.455Z,81.50
2023-01-19T21:51:00.159Z,81.60
2023-01-19T21:53:52.113Z,82.50
2023-01-19T21:56:43.717Z,82.50
2023-01-19T21:59:32.333Z,82.50
2023-01-19T22:02:33.511Z,82.70
2023-01-19T22:05:26.919Z,83.10
2023-01-19T22:08:15.492Z,82.60
2023-01-19T22:11:05.534Z,83.80
2023-01-19T22:13:55.913Z,84.20
2023-01-19T22:16:44.683Z,85.20
2023-01-19T22:19:33.348Z,85.40
2023-01-19T22:22:21.904Z,85.40
2023-01-19T22:25:11.390Z,85.20
2023-01-19T22:28:00.144Z,82.40
2023-01-19T22:30:50.252Z,82.70
2023-01-19T22:33:39.144Z,83.80
2023-01-19T22:36:29.051Z,84.30
2023-01-19T22:39:17.639Z,84.40
2023-01-19T22:42:06.249Z,83.60
2023-01-19T22:44:54.865Z,82.20
2023-01-19T22:47:44.990Z,81.30
2023-01-19T22:50:33.585Z,81.10
2023-01-19T22:53:22.152Z,81.50
2023-01-19T22:56:12.897Z,80.60
2023-01-19T22:59:02.040Z,79.40
2023-01-19T23:01:50.969Z,78.60
2023-01-19T23:04:41.051Z,77.70
2023-01-19T23:07:29.660Z,77.90
2023-01-19T23:10:18.567Z,78.40
2023-01-19T23:13:07.161Z,78.60
2023-01-19T23:15:55.838Z,79.00
2023-01-19T23:18:45.253Z,79.50
2023-01-19T23:21:36.950Z,79.70
2023-01-19T23:24:25.539Z,79.60
2023-01-19T23:27:14.188Z,79.20
2023-01-19T23:30:02.831Z,79.20
2023-01-19T23:32:51.419Z,79.70
2023-01-19T23:35:40.026Z,80.50
2023-01-19T23:38:30.016Z,80.70
2023-01-19T23:41:18.980Z,80.90
2023-01-19T23:44:07.796Z,81.00
2023-01-19T23:46:57.924Z,81.70
2023-01-19T23:49:46.637Z,81.90
2023-01-19T23:52:35.220Z,81.80
2023-01-19T23:55:25.227Z,82.00
2023-01-19T23:58:13.804Z,82.30
